createdAt,value
2023-02-03T00:02:59.265Z,41.13
2023-02-03T00:06:05.339Z,47.35
2023-02-03T00:09:11.029Z,46.33
2023-02-03T00:12:16.965Z,44.55
2023-02-03T00:15:23.672Z,43.13
2023-02-03T00:18:31.734Z,44.20
2023-02-03T00:21:36.989Z,45.20
2023-02-03T00:24:42.064Z,42.00
2023-02-03T00:27:47.835Z,44.67
2023-02-03T00:30:54.285Z,46.45
2023-02-03T00:34:02.258Z,42.90
2023-02-03T00:37:07.492Z,43.97
2023-02-03T00:40:13.823Z,40.65
2023-02-03T00:43:19.455Z,43.38
2023-02-03T00:46:25.090Z,44.25
2023-02-03T00:49:33.131Z,43.70
2023-02-03T00:52:38.670Z,42.60
2023-02-03T00:55:45.470Z,42.28
2023-02-03T00:58:51.475Z,42.83
2023-02-03T01:01:57.014Z,44.65
2023-02-03T01:05:09.321Z,43.42
2023-02-03T01:08:15.246Z,42.90
2023-02-03T01:11:21.628Z,41.75
2023-02-03T01:14:27.077Z,42.45
2023-02-03T01:17:32.695Z,38.55
2023-02-03T01:20:41.226Z,45.17
2023-02-03T01:23:47.026Z,46.83
2023-02-03T01:26:52.650Z,47.35
2023-02-03T01:29:59.076Z,42.30
2023-02-03T01:33:04.597Z,44.90
2023-02-03T01:36:13.702Z,45.50
2023-02-03T01:42:24.442Z,49.90
2023-02-03T01:45:30.710Z,50.00
2023-02-03T01:48:37.186Z,46.60
2023-02-03T01:51:46.610Z,46.33
2023-02-03T01:54:53.562Z,48.75
2023-02-03T01:58:01.219Z,49.60
2023-02-03T02:01:07.002Z,47.72
2023-02-03T02:04:12.994Z,49.28
2023-02-03T02:07:22.568Z,47.47
2023-02-03T02:10:28.664Z,48.25
2023-02-03T02:13:35.828Z,50.35
2023-02-03T02:16:47.376Z,48.45
2023-02-03T02:20:02.019Z,45.70
2023-02-03T02:23:24.136Z,53.85
2023-02-03T02:26:38.406Z,55.97
2023-02-03T02:30:01.880Z,48.80
2023-02-03T02:33:17.359Z,53.15
2023-02-03T02:36:27.837Z,50.85
2023-02-03T02:39:36.959Z,51.92
2023-02-03T02:42:45.277Z,51.22
2023-02-03T02:45:52.009Z,48.78
2023-02-03T02:49:02.956Z,50.53
2023-02-03T02:52:09.745Z,48.55
2023-02-03T02:55:17.841Z,48.60
2023-02-03T02:58:24.031Z,48.53
2023-02-03T03:01:29.614Z,49.92
2023-02-03T03:04:37.905Z,54.40
2023-02-03T03:10:49.364Z,47.20
2023-02-03T03:13:56.648Z,44.95
2023-02-03T03:17:04.140Z,46.38
2023-02-03T03:20:15.200Z,48.25
2023-02-03T03:23:23.936Z,47.83
2023-02-03T03:26:32.184Z,48.20
2023-02-03T03:29:40.462Z,41.45
2023-02-03T03:32:46.312Z,43.63
2023-02-03T03:35:57.814Z,46.83
2023-02-03T03:39:07.103Z,48.28
2023-02-03T03:42:14.066Z,45.85
2023-02-03T03:45:23.137Z,43.45
2023-02-03T03:48:31.437Z,46.83
2023-02-03T03:51:45.424Z,43.50
2023-02-03T03:54:51.877Z,48.90
2023-02-03T03:58:00.032Z,47.33
2023-02-03T04:01:07.301Z,47.85
2023-02-03T04:04:14.132Z,45.60
2023-02-03T04:07:22.766Z,47.80
2023-02-03T04:10:30.751Z,45.58
2023-02-03T04:13:36.022Z,44.85
2023-02-03T04:16:41.635Z,45.10
2023-02-03T04:19:46.784Z,45.17
2023-02-03T04:22:55.081Z,47.42
2023-02-03T04:26:04.124Z,44.90
2023-02-03T04:29:10.026Z,44.35
2023-02-03T04:32:15.575Z,43.50
2023-02-03T04:35:21.332Z,41.17
2023-02-03T04:38:29.618Z,45.90
2023-02-03T04:41:35.093Z,43.55
2023-02-03T04:44:40.675Z,45.00
2023-02-03T04:47:46.002Z,44.50
2023-02-03T04:50:51.735Z,41.63
2023-02-03T04:53:59.593Z,42.38
2023-02-03T04:57:05.472Z,41.45
2023-02-03T05:00:11.437Z,45.78
2023-02-03T05:03:17.683Z,44.90
2023-02-03T05:06:25.882Z,42.70
2023-02-03T05:09:34.199Z,46.85
2023-02-03T05:12:39.684Z,41.40
2023-02-03T05:15:45.006Z,44.60
2023-02-03T05:18:50.365Z,39.45
2023-02-03T05:21:55.598Z,42.25
2023-02-03T05:25:03.571Z,38.40
2023-02-03T05:31:14.669Z,39.33
2023-02-03T05:34:19.963Z,44.55
2023-02-03T05:37:25.532Z,41.10
2023-02-03T05:40:45.944Z,37.70
2023-02-03T05:43:51.158Z,41.95
2023-02-03T05:46:57.608Z,36.45
2023-02-03T05:50:03.151Z,38.30
2023-02-03T05:53:09.782Z,38.40
2023-02-03T05:56:18.062Z,36.35
2023-02-03T06:02:29.067Z,33.40
2023-02-03T06:05:35.559Z,36.85
2023-02-03T06:08:41.030Z,39.67
2023-02-03T06:11:49.578Z,37.83
2023-02-03T06:14:55.455Z,39.90
2023-02-03T06:18:00.655Z,35.60
2023-02-03T06:21:05.904Z,34.90
2023-02-03T06:24:11.273Z,39.08
2023-02-03T06:27:19.319Z,38.35
2023-02-03T06:30:25.062Z,40.95
2023-02-03T06:33:30.937Z,37.28
2023-02-03T06:36:36.369Z,33.15
2023-02-03T06:39:41.990Z,36.83
2023-02-03T06:42:51.691Z,34.50
2023-02-03T06:45:57.022Z,41.72
2023-02-03T06:49:02.537Z,35.53
2023-02-03T06:52:08.094Z,38.25
2023-02-03T06:55:13.862Z,36.72
2023-02-03T06:58:21.746Z,32.47
2023-02-03T07:01:27.328Z,35.03
2023-02-03T07:04:33.345Z,34.47
2023-02-03T07:07:39.691Z,30.60
2023-02-03T07:10:45.417Z,32.45
2023-02-03T07:13:53.679Z,37.40
2023-02-03T07:16:59.268Z,35.85
2023-02-03T07:20:04.597Z,32.70
2023-02-03T07:23:10.176Z,36.70
2023-02-03T07:26:15.833Z,36.58
2023-02-03T07:29:23.703Z,40.78
2023-02-03T07:32:29.426Z,40.67
2023-02-03T07:35:34.675Z,35.45
2023-02-03T07:38:41.296Z,37.30
2023-02-03T07:41:46.592Z,39.75
2023-02-03T07:44:54.736Z,35.50
2023-02-03T07:48:00.185Z,34.00
2023-02-03T07:51:05.504Z,38.17
2023-02-03T07:54:10.854Z,30.77
2023-02-03T07:57:16.262Z,29.80
2023-02-03T08:00:25.328Z,36.28
2023-02-03T08:03:31.067Z,31.77
2023-02-03T08:06:36.855Z,33.78
2023-02-03T08:09:42.408Z,29.40
2023-02-03T08:12:48.332Z,29.30
2023-02-03T08:15:56.987Z,28.55
2023-02-03T08:19:02.298Z,30.33
2023-02-03T08:22:08.023Z,27.33
2023-02-03T08:25:13.576Z,31.58
2023-02-03T08:28:19.049Z,28.33
2023-02-03T08:31:27.070Z,34.28
2023-02-03T08:34:34.452Z,29.88
2023-02-03T08:37:39.517Z,26.75
2023-02-03T08:40:45.239Z,24.63
2023-02-03T08:43:51.014Z,28.55
2023-02-03T08:46:59.006Z,25.42
2023-02-03T08:50:04.554Z,33.53
2023-02-03T08:53:10.227Z,27.27
2023-02-03T08:56:16.282Z,27.90
2023-02-03T08:59:21.940Z,32.35
2023-02-03T09:02:29.715Z,29.67
2023-02-03T09:05:35.661Z,28.80
2023-02-03T09:08:41.157Z,31.35
2023-02-03T09:11:47.069Z,31.33
2023-02-03T09:14:52.415Z,31.33
2023-02-03T09:18:00.447Z,31.45
2023-02-03T09:21:06.224Z,38.67
2023-02-03T09:24:11.919Z,33.95
2023-02-03T09:27:17.025Z,29.75
2023-02-03T09:30:22.517Z,36.47
2023-02-03T09:33:30.647Z,32.63
2023-02-03T09:36:36.050Z,37.40
2023-02-03T09:39:41.739Z,35.85
2023-02-03T09:43:05.501Z,33.70
2023-02-03T09:46:15.986Z,37.13
2023-02-03T09:49:27.648Z,29.67
2023-02-03T09:52:35.232Z,34.80
2023-02-03T09:55:42.751Z,32.50
2023-02-03T09:58:48.334Z,31.33
2023-02-03T10:01:58.277Z,28.80
2023-02-03T10:05:09.911Z,30.48
2023-02-03T10:08:21.933Z,24.88
2023-02-03T10:11:37.149Z,26.58
2023-02-03T10:14:54.908Z,27.50
2023-02-03T10:18:02.762Z,28.65
2023-02-03T10:21:16.738Z,21.93
2023-02-03T10:24:24.415Z,26.58
2023-02-03T10:27:30.941Z,25.63
2023-02-03T10:30:45.823Z,23.02
2023-02-03T10:33:51.635Z,25.67
2023-02-03T10:37:00.907Z,26.85
2023-02-03T10:40:07.353Z,23.63
2023-02-03T10:43:25.601Z,28.80
2023-02-03T10:46:31.806Z,26.13
2023-02-03T10:49:37.298Z,24.73
2023-02-03T10:52:45.422Z,28.77
2023-02-03T10:55:52.675Z,26.95
2023-02-03T10:58:59.523Z,24.80
2023-02-03T11:02:10.379Z,26.02
2023-02-03T11:05:25.584Z,24.98
2023-02-03T11:08:35.862Z,23.92
2023-02-03T11:11:42.269Z,26.85
2023-02-03T11:14:48.358Z,26.80
2023-02-03T11:17:53.739Z,27.27
2023-02-03T11:21:00.172Z,25.13
2023-02-03T11:24:10.300Z,27.83
2023-02-03T11:27:18.191Z,28.73
2023-02-03T11:30:27.207Z,26.23
2023-02-03T11:33:33.163Z,22.85
2023-02-03T11:36:39.056Z,24.65
2023-02-03T11:39:47.379Z,23.92
2023-02-03T11:43:02.836Z,30.13
2023-02-03T11:46:10.077Z,23.10
2023-02-03T11:49:21.167Z,26.77
2023-02-03T11:52:39.251Z,24.02
2023-02-03T11:55:53.539Z,22.10
2023-02-03T11:59:10.632Z,25.38
2023-02-03T12:02:32.731Z,24.90
2023-02-03T12:05:59.317Z,25.70
2023-02-03T12:09:22.237Z,26.27
2023-02-03T12:12:45.274Z,26.00
2023-02-03T12:16:00.668Z,22.55
2023-02-03T12:19:12.004Z,23.85
2023-02-03T12:22:20.731Z,21.42
2023-02-03T12:25:33.200Z,22.25
2023-02-03T12:28:44.854Z,23.88
2023-02-03T12:31:55.670Z,26.45
2023-02-03T12:35:07.304Z,22.83
2023-02-03T12:38:16.115Z,22.58
2023-02-03T12:41:24.340Z,20.08
2023-02-03T12:44:35.050Z,21.88
2023-02-03T12:47:45.516Z,24.98
2023-02-03T12:50:53.569Z,21.08
2023-02-03T12:54:02.643Z,21.33
2023-02-03T12:57:13.931Z,24.05
2023-02-03T13:00:22.464Z,21.50
2023-02-03T13:03:34.619Z,22.63
2023-02-03T13:06:45.101Z,18.50
2023-02-03T13:09:53.223Z,19.88
2023-02-03T13:12:59.882Z,21.88
2023-02-03T13:16:06.161Z,21.10
2023-02-03T13:19:17.052Z,19.75
2023-02-03T13:22:25.281Z,19.48
2023-02-03T13:25:34.155Z,17.27
2023-02-03T13:28:45.565Z,20.23
2023-02-03T13:31:53.504Z,20.33
2023-02-03T13:35:12.946Z,20.35
2023-02-03T13:38:29.780Z,20.33
2023-02-03T13:41:40.263Z,19.25
2023-02-03T13:44:47.604Z,21.17
2023-02-03T13:47:54.408Z,23.15
2023-02-03T13:51:10.972Z,20.80
2023-02-03T13:54:19.238Z,20.45
2023-02-03T13:57:26.042Z,22.08
2023-02-03T14:00:46.921Z,21.52
2023-02-03T14:03:52.313Z,19.67
2023-02-03T14:07:04.837Z,22.45
2023-02-03T14:10:19.303Z,24.42
2023-02-03T14:13:24.900Z,23.73
2023-02-03T14:16:37.867Z,23.92
2023-02-03T14:19:57.893Z,26.63
2023-02-03T14:23:14.141Z,24.35
2023-02-03T14:26:24.473Z,27.70
2023-02-03T14:29:30.615Z,21.58
2023-02-03T14:32:51.217Z,25.33
2023-02-03T14:35:57.140Z,23.52
2023-02-03T14:39:07.429Z,21.60
2023-02-03T14:42:19.658Z,23.60
2023-02-03T14:45:31.163Z,26.75
2023-02-03T14:48:45.955Z,28.35
2023-02-03T14:52:00.227Z,27.90
2023-02-03T14:55:14.113Z,23.55
2023-02-03T14:58:23.947Z,24.27
2023-02-03T15:01:31.817Z,25.10
2023-02-03T15:04:37.502Z,28.45
2023-02-03T15:07:45.610Z,26.38
2023-02-03T15:10:53.839Z,24.17
2023-02-03T15:14:00.028Z,26.80
2023-02-03T15:17:06.476Z,29.05
2023-02-03T15:20:27.234Z,23.52
2023-02-03T15:23:33.795Z,25.13
2023-02-03T15:26:48.143Z,29.60
2023-02-03T15:29:53.653Z,23.17
2023-02-03T15:33:04.606Z,29.83
2023-02-03T15:36:12.738Z,27.13
2023-02-03T15:39:22.732Z,27.95
2023-02-03T15:42:33.580Z,25.75
2023-02-03T15:45:43.278Z,26.70
2023-02-03T15:48:50.886Z,25.27
2023-02-03T15:51:59.998Z,22.93
2023-02-03T15:55:09.703Z,25.88
2023-02-03T15:58:21.299Z,25.75
2023-02-03T16:01:28.479Z,24.25
2023-02-03T16:04:34.237Z,24.60
2023-02-03T16:07:39.893Z,23.08
2023-02-03T16:10:45.279Z,28.40
2023-02-03T16:13:55.675Z,26.30
2023-02-03T16:17:05.509Z,27.73
2023-02-03T16:20:28.692Z,28.67
2023-02-03T16:23:34.581Z,25.42
2023-02-03T16:26:39.969Z,28.80
2023-02-03T16:30:00.402Z,25.70
2023-02-03T16:33:20.455Z,23.05
2023-02-03T16:36:38.163Z,24.27
2023-02-03T16:39:56.131Z,25.30
2023-02-03T16:43:14.264Z,25.27
2023-02-03T16:46:34.836Z,27.02
2023-02-03T16:49:52.431Z,25.33
2023-02-03T16:52:58.122Z,19.33
2023-02-03T16:56:05.165Z,24.30
2023-02-03T16:59:10.502Z,20.90
2023-02-03T17:02:19.168Z,19.00
2023-02-03T17:05:25.144Z,15.63
2023-02-03T17:08:30.367Z,22.15
2023-02-03T17:11:36.048Z,20.75
2023-02-03T17:14:41.265Z,17.52
2023-02-03T17:17:49.560Z,19.95
2023-02-03T17:20:56.975Z,19.77
2023-02-03T17:24:04.010Z,19.23
2023-02-03T17:27:09.455Z,18.05
2023-02-03T17:30:15.760Z,23.88
2023-02-03T17:33:23.547Z,20.63
2023-02-03T17:36:28.935Z,20.52
2023-02-03T17:56:12.396Z,16.60
2023-02-03T17:59:18.008Z,13.52
2023-02-03T18:02:23.168Z,13.55
2023-02-03T18:05:32.839Z,11.88
2023-02-03T18:08:38.679Z,12.02
2023-02-03T18:11:45.272Z,10.30
2023-02-03T18:14:51.073Z,10.45
2023-02-03T18:17:56.386Z,10.00
2023-02-03T18:21:05.594Z,9.65
2023-02-03T18:24:12.109Z,11.45
2023-02-03T18:27:17.951Z,12.70
2023-02-03T18:30:23.452Z,11.52
2023-02-03T18:33:29.990Z,11.05
2023-02-03T18:36:37.927Z,10.60
2023-02-03T18:39:43.638Z,9.45
2023-02-03T18:42:48.922Z,11.73
2023-02-03T18:45:54.718Z,11.18
2023-02-03T18:49:00.303Z,11.82
2023-02-03T18:52:08.460Z,8.02
2023-02-03T18:58:18.987Z,8.35
2023-02-03T19:01:25.720Z,10.70
2023-02-03T19:04:31.184Z,10.30
2023-02-03T19:07:38.987Z,13.35
2023-02-03T19:10:44.678Z,11.68
2023-02-03T19:13:50.026Z,12.77
2023-02-03T19:16:55.430Z,20.27
2023-02-03T19:20:00.799Z,19.13
2023-02-03T19:23:09.302Z,10.95
2023-02-03T19:29:20.648Z,23.05
2023-02-03T19:32:26.425Z,22.40
2023-02-03T19:35:33.418Z,60.35
2023-02-03T19:38:41.486Z,68.82
2023-02-03T19:41:47.191Z,10.38
2023-02-03T19:44:53.464Z,12.02
2023-02-03T19:47:59.088Z,8.05
2023-02-03T19:51:04.554Z,8.30
2023-02-03T19:54:14.450Z,5.55
2023-02-03T19:57:20.038Z,6.85
2023-02-03T20:00:25.930Z,10.27
2023-02-03T20:03:32.808Z,7.47
2023-02-03T20:06:38.598Z,8.18
2023-02-03T20:09:46.649Z,6.82
2023-02-03T20:12:52.235Z,6.93
2023-02-03T20:15:57.604Z,8.88
2023-02-03T20:19:04.525Z,9.15
2023-02-03T20:22:10.638Z,6.18
2023-02-03T20:25:19.405Z,8.23
2023-02-03T20:28:25.523Z,40.78
2023-02-03T20:31:30.950Z,34.47
2023-02-03T20:34:36.384Z,9.13
2023-02-03T20:37:41.603Z,7.00
2023-02-03T20:40:50.137Z,4.28
2023-02-03T20:43:55.536Z,6.82
2023-02-03T20:47:00.898Z,5.30
2023-02-03T20:50:06.822Z,4.40
2023-02-03T20:53:15.618Z,6.50
2023-02-03T20:56:25.161Z,4.85
2023-02-03T20:59:32.274Z,4.25
2023-02-03T21:03:05.715Z,6.60
2023-02-03T21:06:13.727Z,6.63
2023-02-03T21:09:20.967Z,5.55
2023-02-03T21:12:29.572Z,5.50
2023-02-03T21:15:35.131Z,6.65
2023-02-03T21:18:41.916Z,4.97
2023-02-03T21:21:47.602Z,8.43
2023-02-03T21:24:54.390Z,7.85
2023-02-03T21:28:03.247Z,7.63
2023-02-03T21:31:08.982Z,6.65
2023-02-03T21:34:22.662Z,7.50
2023-02-03T21:37:40.276Z,7.30
2023-02-03T21:40:45.517Z,5.70
2023-02-03T21:43:55.037Z,6.65
2023-02-03T21:47:00.926Z,7.05
2023-02-03T21:50:06.644Z,6.90
2023-02-03T21:53:25.476Z,6.30
2023-02-03T21:56:32.011Z,6.88
2023-02-03T21:59:47.029Z,6.97
2023-02-03T22:02:58.916Z,7.93
2023-02-03T22:06:16.001Z,9.38
2023-02-03T22:09:21.937Z,6.43
2023-02-03T22:12:27.093Z,7.43
2023-02-03T22:15:35.381Z,6.63
2023-02-03T22:18:41.528Z,7.20
2023-02-03T22:21:49.032Z,7.65
2023-02-03T22:24:54.436Z,6.23
2023-02-03T22:27:59.630Z,6.85
2023-02-03T22:31:08.062Z,6.03
2023-02-03T22:34:15.987Z,6.50
2023-02-03T22:37:21.480Z,7.22
2023-02-03T22:40:27.436Z,7.05
2023-02-03T22:43:33.031Z,8.88
2023-02-03T22:46:41.322Z,7.35
2023-02-03T22:49:47.050Z,8.73
2023-02-03T22:52:54.577Z,8.02
2023-02-03T22:56:00.027Z,7.27
2023-02-03T22:59:05.538Z,9.32
2023-02-03T23:02:13.301Z,6.88
2023-02-03T23:05:18.527Z,8.10
2023-02-03T23:08:23.947Z,8.93
2023-02-03T23:11:29.718Z,7.50
2023-02-03T23:14:35.097Z,8.10
2023-02-03T23:17:43.610Z,9.32
2023-02-03T23:23:54.680Z,8.55
2023-02-03T23:26:59.711Z,7.53
2023-02-03T23:30:05.452Z,9.80
2023-02-03T23:33:13.707Z,11.13
2023-02-03T23:36:16.315Z,8.10
2023-02-03T23:39:22.354Z,7.68
2023-02-03T23:42:27.787Z,9.82
2023-02-03T23:45:33.390Z,8.80
2023-02-03T23:48:41.722Z,10.77
2023-02-03T23:51:47.479Z,9.70
2023-02-03T23:54:52.840Z,10.15
2023-02-03T23:57:58.202Z,8.80
